sensor_id;sensor_type;location;lat;lon;timestamp;pressure;altitude;pressure_sealevel;temperature;humidity
9277;BME280;4676;42.678;23.244;2023-05-21T00:01:13;93965.91;;;12.48;100.00
9277;BME280;4676;42.678;23.244;2023-05-21T00:03:40;93963.56;;;12.44;100.00
9277;BME280;4676;42.678;23.244;2023-05-21T00:06:09;93963.06;;;12.37;100.00
9277;BME280;4676;42.678;23.244;2023-05-21T00:08:38;93960.41;;;12.39;100.00
9277;BME280;4676;42.678;23.244;2023-05-21T00:11:06;93964.91;;;12.34;100.00
9277;BME280;4676;42.678;23.244;2023-05-21T00:13:32;93955.84;;;12.28;100.00
9277;BME280;4676;42.678;23.244;2023-05-21T00:15:59;93956.94;;;12.24;100.00
9277;BME280;4676;42.678;23.244;2023-05-21T00:18:26;93959.22;;;12.29;100.00
9277;BME280;4676;42.678;23.244;2023-05-21T00:20:52;93956.25;;;12.38;100.00
9277;BME280;4676;42.678;23.244;2023-05-21T00:23:19;93957.28;;;12.34;100.00
9277;BME280;4676;42.678;23.244;2023-05-21T00:25:48;93946.81;;;12.23;100.00
9277;BME280;4676;42.678;23.244;2023-05-21T00:28:14;93944.59;;;12.17;100.00
9277;BME280;4676;42.678;23.244;2023-05-21T00:30:41;93954.13;;;12.12;100.00
9277;BME280;4676;42.678;23.244;2023-05-21T00:33:08;93948.53;;;12.05;100.00
9277;BME280;4676;42.678;23.244;2023-05-21T00:35:38;93953.91;;;11.99;100.00
9277;BME280;4676;42.678;23.244;2023-05-21T00:38:05;93954.19;;;11.93;100.00
9277;BME280;4676;42.678;23.244;2023-05-21T00:40:33;93948.44;;;11.89;100.00
9277;BME280;4676;42.678;23.244;2023-05-21T00:43:01;93937.06;;;11.79;100.00
9277;BME280;4676;42.678;23.244;2023-05-21T00:45:28;93939.41;;;11.84;100.00
9277;BME280;4676;42.678;23.244;2023-05-21T00:47:54;93929.44;;;11.79;100.00
9277;BME280;4676;42.678;23.244;2023-05-21T00:50:21;93932.22;;;11.75;100.00
9277;BME280;4676;42.678;23.244;2023-05-21T00:52:48;93933.94;;;11.74;100.00
9277;BME280;4676;42.678;23.244;2023-05-21T00:55:16;93909.97;;;11.61;100.00
9277;BME280;4676;42.678;23.244;2023-05-21T00:57:42;93933.44;;;11.66;100.00
9277;BME280;4676;42.678;23.244;2023-05-21T01:00:13;93921.63;;;11.65;100.00
9277;BME280;4676;42.678;23.244;2023-05-21T01:02:41;93936.94;;;11.64;100.00
9277;BME280;4676;42.678;23.244;2023-05-21T01:05:09;93932.06;;;11.59;100.00
9277;BME280;4676;42.678;23.244;2023-05-21T01:07:38;93928.22;;;11.50;100.00
9277;BME280;4676;42.678;23.244;2023-05-21T01:10:08;93913.56;;;11.57;100.00
9277;BME280;4676;42.678;23.244;2023-05-21T01:12:37;93931.25;;;11.59;100.00
9277;BME280;4676;42.678;23.244;2023-05-21T01:15:06;93923.78;;;11.56;100.00
9277;BME280;4676;42.678;23.244;2023-05-21T01:17:35;93923.03;;;11.53;100.00
9277;BME280;4676;42.678;23.244;2023-05-21T01:20:02;93925.50;;;11.55;100.00
9277;BME280;4676;42.678;23.244;2023-05-21T01:22:34;93926.63;;;11.49;100.00
9277;BME280;4676;42.678;23.244;2023-05-21T01:25:06;93922.13;;;11.54;100.00
9277;BME280;4676;42.678;23.244;2023-05-21T01:27:32;93919.00;;;11.49;100.00
9277;BME280;4676;42.678;23.244;2023-05-21T01:29:59;93904.66;;;11.48;100.00
9277;BME280;4676;42.678;23.244;2023-05-21T01:32:30;93915.34;;;11.55;100.00
9277;BME280;4676;42.678;23.244;2023-05-21T01:35:00;93919.81;;;11.50;100.00
9277;BME280;4676;42.678;23.244;2023-05-21T01:37:31;93911.28;;;11.51;100.00
9277;BME280;4676;42.678;23.244;2023-05-21T01:40:04;93911.44;;;11.48;100.00
9277;BME280;4676;42.678;23.244;2023-05-21T01:42:36;93911.25;;;11.52;100.00
9277;BME280;4676;42.678;23.244;2023-05-21T01:45:05;93915.03;;;11.61;100.00
9277;BME280;4676;42.678;23.244;2023-05-21T01:47:34;93920.91;;;11.63;100.00
9277;BME280;4676;42.678;23.244;2023-05-21T01:50:03;93913.47;;;11.59;100.00
9277;BME280;4676;42.678;23.244;2023-05-21T01:52:30;93916.47;;;11.49;100.00
9277;BME280;4676;42.678;23.244;2023-05-21T01:54:57;93913.16;;;11.47;100.00
9277;BME280;4676;42.678;23.244;2023-05-21T01:57:24;93913.31;;;11.44;100.00
9277;BME280;4676;42.678;23.244;2023-05-21T01:59:52;93910.91;;;11.41;100.00
9277;BME280;4676;42.678;23.244;2023-05-21T02:02:20;93908.31;;;11.43;100.00
9277;BME280;4676;42.678;23.244;2023-05-21T02:04:47;93907.78;;;11.36;100.00
9277;BME280;4676;42.678;23.244;2023-05-21T02:07:14;93899.19;;;11.39;100.00
9277;BME280;4676;42.678;23.244;2023-05-21T02:09:42;93898.44;;;11.37;100.00
9277;BME280;4676;42.678;23.244;2023-05-21T02:12:09;93896.72;;;11.37;100.00
9277;BME280;4676;42.678;23.244;2023-05-21T02:14:35;93896.84;;;11.34;100.00
9277;BME280;4676;42.678;23.244;2023-05-21T02:17:04;93892.66;;;11.33;100.00
9277;BME280;4676;42.678;23.244;2023-05-21T02:19:32;93887.97;;;11.26;100.00
9277;BME280;4676;42.678;23.244;2023-05-21T02:21:59;93893.84;;;11.26;100.00
9277;BME280;4676;42.678;23.244;2023-05-21T02:24:25;93899.06;;;11.23;100.00
9277;BME280;4676;42.678;23.244;2023-05-21T02:26:52;93900.22;;;11.16;100.00
9277;BME280;4676;42.678;23.244;2023-05-21T02:29:19;93892.78;;;11.13;100.00
9277;BME280;4676;42.678;23.244;2023-05-21T02:31:45;93897.16;;;11.28;100.00
9277;BME280;4676;42.678;23.244;2023-05-21T02:34:13;93898.59;;;11.15;100.00
9277;BME280;4676;42.678;23.244;2023-05-21T02:36:40;93900.66;;;11.07;100.00
9277;BME280;4676;42.678;23.244;2023-05-21T02:39:07;93901.69;;;11.03;100.00
9277;BME280;4676;42.678;23.244;2023-05-21T02:41:34;93899.00;;;11.06;100.00
9277;BME280;4676;42.678;23.244;2023-05-21T02:44:02;93897.44;;;11.03;100.00
9277;BME280;4676;42.678;23.244;2023-05-21T02:46:29;93890.53;;;11.07;100.00
9277;BME280;4676;42.678;23.244;2023-05-21T02:48:56;93890.31;;;11.12;100.00
9277;BME280;4676;42.678;23.244;2023-05-21T02:51:24;93883.31;;;11.17;100.00
9277;BME280;4676;42.678;23.244;2023-05-21T02:53:50;93881.41;;;11.22;100.00
9277;BME280;4676;42.678;23.244;2023-05-21T02:56:17;93892.22;;;11.25;100.00
9277;BME280;4676;42.678;23.244;2023-05-21T02:58:44;93887.34;;;11.21;100.00
9277;BME280;4676;42.678;23.244;2023-05-21T03:01:10;93886.94;;;11.11;100.00
9277;BME280;4676;42.678;23.244;2023-05-21T03:03:37;93877.84;;;11.07;100.00
9277;BME280;4676;42.678;23.244;2023-05-21T03:06:04;93878.38;;;11.14;100.00
9277;BME280;4676;42.678;23.244;2023-05-21T03:08:32;93884.47;;;11.10;100.00
9277;BME280;4676;42.678;23.244;2023-05-21T03:10:58;93887.69;;;11.13;100.00
9277;BME280;4676;42.678;23.244;2023-05-21T03:13:25;93899.28;;;11.19;100.00
9277;BME280;4676;42.678;23.244;2023-05-21T03:15:52;93898.19;;;11.24;100.00
9277;BME280;4676;42.678;23.244;2023-05-21T03:18:20;93897.44;;;11.22;100.00
9277;BME280;4676;42.678;23.244;2023-05-21T03:20:47;93903.88;;;11.11;100.00
9277;BME280;4676;42.678;23.244;2023-05-21T03:23:14;93900.50;;;11.10;100.00
9277;BME280;4676;42.678;23.244;2023-05-21T03:25:42;93894.22;;;11.00;100.00
9277;BME280;4676;42.678;23.244;2023-05-21T03:28:10;93894.28;;;11.17;100.00
9277;BME280;4676;42.678;23.244;2023-05-21T03:30:36;93903.69;;;11.15;100.00
9277;BME280;4676;42.678;23.244;2023-05-21T03:33:03;93904.16;;;11.05;100.00
9277;BME280;4676;42.678;23.244;2023-05-21T03:35:30;93909.56;;;11.16;100.00
9277;BME280;4676;42.678;23.244;2023-05-21T03:37:57;93907.44;;;11.25;100.00
9277;BME280;4676;42.678;23.244;2023-05-21T03:40:24;93907.50;;;11.24;100.00
9277;BME280;4676;42.678;23.244;2023-05-21T03:42:52;93902.81;;;11.33;100.00
9277;BME280;4676;42.678;23.244;2023-05-21T03:45:18;93899.09;;;11.40;100.00
9277;BME280;4676;42.678;23.244;2023-05-21T03:47:45;93898.06;;;11.44;100.00
9277;BME280;4676;42.678;23.244;2023-05-21T03:50:13;93896.06;;;11.51;100.00
9277;BME280;4676;42.678;23.244;2023-05-21T03:52:40;93898.47;;;11.54;100.00
9277;BME280;4676;42.678;23.244;2023-05-21T03:55:07;93898.31;;;11.76;100.00
9277;BME280;4676;42.678;23.244;2023-05-21T03:57:34;93890.94;;;11.88;100.00
9277;BME280;4676;42.678;23.244;2023-05-21T04:00:04;93899.00;;;11.96;100.00
9277;BME280;4676;42.678;23.244;2023-05-21T04:02:31;93894.88;;;12.11;100.00
9277;BME280;4676;42.678;23.244;2023-05-21T04:04:58;93893.63;;;12.20;100.00
9277;BME280;4676;42.678;23.244;2023-05-21T04:07:24;93896.91;;;12.22;100.00
9277;BME280;4676;42.678;23.244;2023-05-21T04:09:51;93895.41;;;12.35;100.00
9277;BME280;4676;42.678;23.244;2023-05-21T04:12:18;93893.59;;;12.37;100.00
9277;BME280;4676;42.678;23.244;2023-05-21T04:14:45;93893.44;;;12.40;100.00
9277;BME280;4676;42.678;23.244;2023-05-21T04:17:13;93895.00;;;12.42;100.00
9277;BME280;4676;42.678;23.244;2023-05-21T04:19:40;93898.97;;;12.48;100.00
9277;BME280;4676;42.678;23.244;2023-05-21T04:22:08;93899.41;;;12.56;100.00
9277;BME280;4676;42.678;23.244;2023-05-21T04:24:35;93894.09;;;12.61;100.00
9277;BME280;4676;42.678;23.244;2023-05-21T04:27:03;93900.19;;;12.74;100.00
9277;BME280;4676;42.678;23.244;2023-05-21T04:29:30;93892.97;;;12.82;100.00
9277;BME280;4676;42.678;23.244;2023-05-21T04:31:57;93898.50;;;12.90;100.00
9277;BME280;4676;42.678;23.244;2023-05-21T04:34:25;93904.97;;;12.95;100.00
9277;BME280;4676;42.678;23.244;2023-05-21T04:36:51;93901.06;;;12.90;100.00
9277;BME280;4676;42.678;23.244;2023-05-21T04:39:18;93900.66;;;12.97;100.00
9277;BME280;4676;42.678;23.244;2023-05-21T04:41:45;93897.72;;;13.05;100.00
9277;BME280;4676;42.678;23.244;2023-05-21T04:44:12;93895.59;;;13.13;100.00
9277;BME280;4676;42.678;23.244;2023-05-21T04:46:40;93901.44;;;13.15;100.00
9277;BME280;4676;42.678;23.244;2023-05-21T04:49:07;93901.94;;;13.22;100.00
9277;BME280;4676;42.678;23.244;2023-05-21T04:51:36;93903.16;;;13.30;100.00
9277;BME280;4676;42.678;23.244;2023-05-21T04:54:03;93905.88;;;13.43;100.00
9277;BME280;4676;42.678;23.244;2023-05-21T04:56:29;93903.56;;;13.54;100.00
9277;BME280;4676;42.678;23.244;2023-05-21T04:58:56;93906.25;;;13.67;100.00
9277;BME280;4676;42.678;23.244;2023-05-21T05:01:24;93900.28;;;13.68;100.00
9277;BME280;4676;42.678;23.244;2023-05-21T05:03:51;93902.81;;;13.68;100.00
9277;BME280;4676;42.678;23.244;2023-05-21T05:06:18;93897.16;;;13.63;100.00
9277;BME280;4676;42.678;23.244;2023-05-21T05:08:47;93908.88;;;13.65;100.00
9277;BME280;4676;42.678;23.244;2023-05-21T05:11:13;93907.63;;;13.72;100.00
9277;BME280;4676;42.678;23.244;2023-05-21T05:13:40;93909.03;;;13.78;100.00
9277;BME280;4676;42.678;23.244;2023-05-21T05:16:07;93904.50;;;13.83;100.00
9277;BME280;4676;42.678;23.244;2023-05-21T05:18:34;93901.72;;;13.87;100.00
9277;BME280;4676;42.678;23.244;2023-05-21T05:21:01;93897.13;;;13.78;100.00
9277;BME280;4676;42.678;23.244;2023-05-21T05:23:28;93911.91;;;13.87;100.00
9277;BME280;4676;42.678;23.244;2023-05-21T05:25:56;93902.34;;;14.07;100.00
9277;BME280;4676;42.678;23.244;2023-05-21T05:28:22;93903.34;;;14.34;100.00
9277;BME280;4676;42.678;23.244;2023-05-21T05:30:49;93905.19;;;14.60;100.00
9277;BME280;4676;42.678;23.244;2023-05-21T05:33:16;93900.00;;;14.90;100.00
9277;BME280;4676;42.678;23.244;2023-05-21T05:35:43;93903.84;;;14.97;100.00
9277;BME280;4676;42.678;23.244;2023-05-21T05:38:09;93904.56;;;14.99;100.00
9277;BME280;4676;42.678;23.244;2023-05-21T05:40:37;93898.00;;;14.95;100.00
9277;BME280;4676;42.678;23.244;2023-05-21T05:43:05;93896.88;;;15.13;100.00
9277;BME280;4676;42.678;23.244;2023-05-21T05:45:32;93891.47;;;15.32;100.00
9277;BME280;4676;42.678;23.244;2023-05-21T05:47:59;93905.56;;;15.66;100.00
9277;BME280;4676;42.678;23.244;2023-05-21T05:50:26;93905.47;;;15.94;100.00
9277;BME280;4676;42.678;23.244;2023-05-21T05:52:52;93903.03;;;16.05;100.00
9277;BME280;4676;42.678;23.244;2023-05-21T05:55:19;93895.63;;;16.15;100.00
9277;BME280;4676;42.678;23.244;2023-05-21T06:00:28;93903.38;;;16.65;100.00
9277;BME280;4676;42.678;23.244;2023-05-21T06:02:56;93897.44;;;16.77;100.00
9277;BME280;4676;42.678;23.244;2023-05-21T06:05:22;93903.56;;;17.00;100.00
9277;BME280;4676;42.678;23.244;2023-05-21T06:07:49;93900.13;;;17.37;100.00
9277;BME280;4676;42.678;23.244;2023-05-21T06:10:16;93903.81;;;17.59;100.00
9277;BME280;4676;42.678;23.244;2023-05-21T06:12:43;93902.47;;;17.77;100.00
9277;BME280;4676;42.678;23.244;2023-05-21T06:15:10;93903.31;;;17.77;100.00
9277;BME280;4676;42.678;23.244;2023-05-21T06:17:40;93894.38;;;18.07;100.00
9277;BME280;4676;42.678;23.244;2023-05-21T06:20:08;93885.25;;;18.03;100.00
9277;BME280;4676;42.678;23.244;2023-05-21T06:22:35;93885.84;;;18.06;100.00
9277;BME280;4676;42.678;23.244;2023-05-21T06:25:02;93887.09;;;18.24;100.00
9277;BME280;4676;42.678;23.244;2023-05-21T06:27:29;93887.75;;;18.50;100.00
9277;BME280;4676;42.678;23.244;2023-05-21T06:29:56;93887.13;;;18.70;99.05
9277;BME280;4676;42.678;23.244;2023-05-21T06:32:23;93872.88;;;18.66;95.40
9277;BME280;4676;42.678;23.244;2023-05-21T06:34:51;93861.78;;;18.77;96.69
9277;BME280;4676;42.678;23.244;2023-05-21T06:37:19;93881.78;;;18.95;89.31
9277;BME280;4676;42.678;23.244;2023-05-21T06:39:46;93880.94;;;18.84;85.16
9277;BME280;4676;42.678;23.244;2023-05-21T06:42:13;93879.41;;;18.70;86.87
9277;BME280;4676;42.678;23.244;2023-05-21T06:44:39;93876.38;;;18.76;87.78
9277;BME280;4676;42.678;23.244;2023-05-21T06:47:06;93878.25;;;18.74;82.91
9277;BME280;4676;42.678;23.244;2023-05-21T06:49:33;93878.22;;;18.52;84.21
9277;BME280;4676;42.678;23.244;2023-05-21T06:52:01;93870.06;;;18.69;87.04
9277;BME280;4676;42.678;23.244;2023-05-21T06:54:28;93872.09;;;18.42;82.50
9277;BME280;4676;42.678;23.244;2023-05-21T06:56:55;93879.53;;;18.34;85.03
9277;BME280;4676;42.678;23.244;2023-05-21T06:59:21;93877.84;;;18.11;86.47
9277;BME280;4676;42.678;23.244;2023-05-21T07:01:48;93872.44;;;18.03;84.09
9277;BME280;4676;42.678;23.244;2023-05-21T07:04:15;93876.81;;;17.89;90.49
9277;BME280;4676;42.678;23.244;2023-05-21T07:06:41;93874.75;;;18.06;89.65
9277;BME280;4676;42.678;23.244;2023-05-21T07:09:09;93866.47;;;18.02;89.26
9277;BME280;4676;42.678;23.244;2023-05-21T07:11:36;93865.41;;;18.28;87.54
9277;BME280;4676;42.678;23.244;2023-05-21T07:14:03;93869.25;;;18.58;80.35
9277;BME280;4676;42.678;23.244;2023-05-21T07:16:29;93868.34;;;18.81;79.32
9277;BME280;4676;42.678;23.244;2023-05-21T07:18:56;93866.00;;;19.11;78.55
9277;BME280;4676;42.678;23.244;2023-05-21T07:21:23;93867.03;;;19.53;79.14
9277;BME280;4676;42.678;23.244;2023-05-21T07:23:49;93872.78;;;19.46;75.75
9277;BME280;4676;42.678;23.244;2023-05-21T07:26:18;93876.63;;;19.51;71.58
9277;BME280;4676;42.678;23.244;2023-05-21T07:28:45;93869.97;;;19.60;72.51
9277;BME280;4676;42.678;23.244;2023-05-21T07:31:12;93878.94;;;19.54;71.68
9277;BME280;4676;42.678;23.244;2023-05-21T07:33:38;93824.00;;;18.68;70.41
9277;BME280;4676;42.678;23.244;2023-05-21T07:36:05;93873.34;;;18.93;73.38
9277;BME280;4676;42.678;23.244;2023-05-21T07:38:32;93849.66;;;18.90;72.61
9277;BME280;4676;42.678;23.244;2023-05-21T07:40:59;93869.16;;;19.48;75.84
9277;BME280;4676;42.678;23.244;2023-05-21T07:43:27;93871.06;;;19.78;74.40
9277;BME280;4676;42.678;23.244;2023-05-21T07:45:54;93877.03;;;20.10;73.34
9277;BME280;4676;42.678;23.244;2023-05-21T07:48:20;93870.59;;;19.84;64.23
9277;BME280;4676;42.678;23.244;2023-05-21T07:50:47;93873.50;;;19.90;64.96
9277;BME280;4676;42.678;23.244;2023-05-21T07:53:17;93857.03;;;19.82;66.94
9277;BME280;4676;42.678;23.244;2023-05-21T07:55:43;93862.06;;;20.15;72.05
9277;BME280;4676;42.678;23.244;2023-05-21T07:58:14;93869.56;;;20.39;67.87
9277;BME280;4676;42.678;23.244;2023-05-21T08:00:43;93867.75;;;20.51;63.15
9277;BME280;4676;42.678;23.244;2023-05-21T08:03:12;93872.44;;;20.66;62.23
9277;BME280;4676;42.678;23.244;2023-05-21T08:05:40;93869.19;;;20.64;61.00
9277;BME280;4676;42.678;23.244;2023-05-21T08:08:07;93864.38;;;20.80;63.43
9277;BME280;4676;42.678;23.244;2023-05-21T08:10:34;93874.75;;;21.11;61.42
9277;BME280;4676;42.678;23.244;2023-05-21T08:13:01;93873.84;;;21.01;59.32
9277;BME280;4676;42.678;23.244;2023-05-21T08:15:28;93874.56;;;20.82;59.47
9277;BME280;4676;42.678;23.244;2023-05-21T08:17:56;93875.06;;;20.55;56.75
9277;BME280;4676;42.678;23.244;2023-05-21T08:20:23;93875.47;;;20.30;54.75
9277;BME280;4676;42.678;23.244;2023-05-21T08:22:50;93874.59;;;20.09;55.92
9277;BME280;4676;42.678;23.244;2023-05-21T08:25:17;93873.00;;;19.97;55.43
9277;BME280;4676;42.678;23.244;2023-05-21T08:27:44;93883.25;;;20.08;54.26
9277;BME280;4676;42.678;23.244;2023-05-21T08:30:11;93881.88;;;19.92;53.65
9277;BME280;4676;42.678;23.244;2023-05-21T08:32:38;93878.97;;;19.97;54.49
9277;BME280;4676;42.678;23.244;2023-05-21T08:35:07;93880.34;;;20.01;54.69
9277;BME280;4676;42.678;23.244;2023-05-21T08:37:34;93882.50;;;20.17;52.12
9277;BME280;4676;42.678;23.244;2023-05-21T08:40:01;93875.78;;;20.05;55.04
9277;BME280;4676;42.678;23.244;2023-05-21T08:42:37;93868.16;;;20.03;52.74
9277;BME280;4676;42.678;23.244;2023-05-21T08:45:05;93880.06;;;19.83;52.94
9277;BME280;4676;42.678;23.244;2023-05-21T08:47:34;93875.00;;;19.93;54.36
9277;BME280;4676;42.678;23.244;2023-05-21T08:50:02;93885.16;;;19.94;53.89
9277;BME280;4676;42.678;23.244;2023-05-21T08:52:31;93872.59;;;20.12;55.07
9277;BME280;4676;42.678;23.244;2023-05-21T08:54:58;93871.25;;;20.29;54.29
9277;BME280;4676;42.678;23.244;2023-05-21T08:57:26;93870.44;;;20.49;55.13
9277;BME280;4676;42.678;23.244;2023-05-21T08:59:53;93871.31;;;20.59;55.23
9277;BME280;4676;42.678;23.244;2023-05-21T09:02:20;93876.34;;;20.81;52.92
9277;BME280;4676;42.678;23.244;2023-05-21T09:04:49;93878.88;;;21.02;52.53
9277;BME280;4676;42.678;23.244;2023-05-21T09:07:21;93883.56;;;20.67;49.78
9277;BME280;4676;42.678;23.244;2023-05-21T09:09:53;93866.47;;;20.45;48.97
9277;BME280;4676;42.678;23.244;2023-05-21T09:12:20;93872.28;;;20.26;49.39
9277;BME280;4676;42.678;23.244;2023-05-21T09:14:48;93868.69;;;20.29;51.79
9277;BME280;4676;42.678;23.244;2023-05-21T09:17:15;93873.72;;;20.19;51.91
9277;BME280;4676;42.678;23.244;2023-05-21T09:20:06;93875.28;;;20.11;52.12
9277;BME280;4676;42.678;23.244;2023-05-21T09:22:35;93875.06;;;20.03;53.73
9277;BME280;4676;42.678;23.244;2023-05-21T09:25:08;93865.75;;;20.22;56.89
9277;BME280;4676;42.678;23.244;2023-05-21T09:27:36;93874.66;;;20.29;54.50
9277;BME280;4676;42.678;23.244;2023-05-21T09:30:03;93876.50;;;20.27;56.79
9277;BME280;4676;42.678;23.244;2023-05-21T09:32:33;93864.66;;;20.36;54.99
9277;BME280;4676;42.678;23.244;2023-05-21T09:35:06;93877.66;;;20.23;53.51
9277;BME280;4676;42.678;23.244;2023-05-21T09:37:36;93876.22;;;20.41;54.39
9277;BME280;4676;42.678;23.244;2023-05-21T09:40:09;93867.78;;;20.81;57.46
9277;BME280;4676;42.678;23.244;2023-05-21T09:42:37;93872.25;;;21.09;54.96
9277;BME280;4676;42.678;23.244;2023-05-21T09:45:05;93865.59;;;21.27;52.28
9277;BME280;4676;42.678;23.244;2023-05-21T09:47:32;93861.69;;;21.42;55.80
9277;BME280;4676;42.678;23.244;2023-05-21T09:49:59;93869.84;;;21.48;50.39
9277;BME280;4676;42.678;23.244;2023-05-21T09:52:26;93861.72;;;21.52;51.81
9277;BME280;4676;42.678;23.244;2023-05-21T09:54:54;93861.72;;;21.62;51.54
9277;BME280;4676;42.678;23.244;2023-05-21T09:57:25;93874.06;;;21.58;47.47
9277;BME280;4676;42.678;23.244;2023-05-21T09:59:52;93864.59;;;21.59;49.54
9277;BME280;4676;42.678;23.244;2023-05-21T10:02:20;93856.56;;;21.62;48.95
9277;BME280;4676;42.678;23.244;2023-05-21T10:04:49;93867.88;;;21.70;47.05
9277;BME280;4676;42.678;23.244;2023-05-21T10:07:18;93856.72;;;21.70;48.14
9277;BME280;4676;42.678;23.244;2023-05-21T10:09:46;93850.31;;;21.64;50.64
9277;BME280;4676;42.678;23.244;2023-05-21T10:12:16;93858.22;;;21.72;46.20
9277;BME280;4676;42.678;23.244;2023-05-21T10:14:46;93859.03;;;21.82;51.39
9277;BME280;4676;42.678;23.244;2023-05-21T10:17:16;93857.03;;;21.96;46.89
9277;BME280;4676;42.678;23.244;2023-05-21T10:19:43;93854.22;;;21.99;47.26
9277;BME280;4676;42.678;23.244;2023-05-21T10:22:12;93850.25;;;22.14;48.67
9277;BME280;4676;42.678;23.244;2023-05-21T10:24:42;93844.16;;;22.15;48.25
9277;BME280;4676;42.678;23.244;2023-05-21T10:27:10;93839.94;;;22.33;50.34
9277;BME280;4676;42.678;23.244;2023-05-21T10:29:40;93843.88;;;22.37;49.03
9277;BME280;4676;42.678;23.244;2023-05-21T10:32:08;93842.81;;;22.30;47.98
9277;BME280;4676;42.678;23.244;2023-05-21T10:34:36;93846.19;;;22.21;51.36
9277;BME280;4676;42.678;23.244;2023-05-21T10:37:06;93837.50;;;22.03;50.00
9277;BME280;4676;42.678;23.244;2023-05-21T10:39:33;93847.69;;;21.95;46.06
9277;BME280;4676;42.678;23.244;2023-05-21T10:42:11;93843.44;;;21.84;48.67
9277;BME280;4676;42.678;23.244;2023-05-21T10:44:51;93841.84;;;21.92;49.13
9277;BME280;4676;42.678;23.244;2023-05-21T10:47:58;93844.44;;;22.12;46.08
9277;BME280;4676;42.678;23.244;2023-05-21T10:51:03;93849.72;;;22.01;44.27
9277;BME280;4676;42.678;23.244;2023-05-21T10:53:44;93844.13;;;21.86;47.83
9277;BME280;4676;42.678;23.244;2023-05-21T10:56:18;93851.78;;;21.48;46.62
9277;BME280;4676;42.678;23.244;2023-05-21T10:59:08;93843.41;;;21.15;48.71
9277;BME280;4676;42.678;23.244;2023-05-21T11:01:38;93849.84;;;21.00;50.21
9277;BME280;4676;42.678;23.244;2023-05-21T11:04:07;93847.09;;;20.92;51.92
9277;BME280;4676;42.678;23.244;2023-05-21T11:06:34;93845.59;;;20.89;49.94
9277;BME280;4676;42.678;23.244;2023-05-21T11:09:01;93838.78;;;20.79;51.93
9277;BME280;4676;42.678;23.244;2023-05-21T11:11:41;93847.13;;;20.71;52.12
9277;BME280;4676;42.678;23.244;2023-05-21T11:14:28;93836.44;;;20.55;50.83
9277;BME280;4676;42.678;23.244;2023-05-21T11:16:57;93833.41;;;20.40;51.42
9277;BME280;4676;42.678;23.244;2023-05-21T11:19:33;93838.19;;;20.13;50.74
9277;BME280;4676;42.678;23.244;2023-05-21T11:22:04;93839.25;;;20.11;51.99
9277;BME280;4676;42.678;23.244;2023-05-21T11:24:31;93824.97;;;19.86;54.92
9277;BME280;4676;42.678;23.244;2023-05-21T11:27:00;93830.47;;;19.81;56.52
9277;BME280;4676;42.678;23.244;2023-05-21T11:29:46;93831.25;;;19.93;54.18
9277;BME280;4676;42.678;23.244;2023-05-21T11:32:13;93825.75;;;19.98;54.15
9277;BME280;4676;42.678;23.244;2023-05-21T11:34:46;93822.44;;;20.07;54.67
9277;BME280;4676;42.678;23.244;2023-05-21T11:37:36;93826.16;;;20.34;53.01
9277;BME280;4676;42.678;23.244;2023-05-21T11:40:25;93815.38;;;20.40;54.50
9277;BME280;4676;42.678;23.244;2023-05-21T11:42:53;93816.00;;;20.33;55.99
9277;BME280;4676;42.678;23.244;2023-05-21T11:45:21;93820.38;;;20.21;54.61
9277;BME280;4676;42.678;23.244;2023-05-21T11:47:49;93791.03;;;19.92;55.01
9277;BME280;4676;42.678;23.244;2023-05-21T11:50:18;93817.06;;;19.99;52.68
9277;BME280;4676;42.678;23.244;2023-05-21T11:52:45;93805.31;;;19.85;58.08
9277;BME280;4676;42.678;23.244;2023-05-21T11:55:12;93806.59;;;19.70;60.05
9277;BME280;4676;42.678;23.244;2023-05-21T11:57:40;93806.00;;;19.66;58.67
9277;BME280;4676;42.678;23.244;2023-05-21T12:00:13;93811.22;;;19.76;55.50
9277;BME280;4676;42.678;23.244;2023-05-21T12:02:45;93801.13;;;19.63;57.17
9277;BME280;4676;42.678;23.244;2023-05-21T12:05:12;93795.72;;;19.66;54.71
9277;BME280;4676;42.678;23.244;2023-05-21T12:07:41;93801.13;;;19.63;56.55
9277;BME280;4676;42.678;23.244;2023-05-21T12:10:08;93797.47;;;19.66;55.43
9277;BME280;4676;42.678;23.244;2023-05-21T12:12:35;93796.34;;;19.59;57.08
9277;BME280;4676;42.678;23.244;2023-05-21T12:15:02;93794.34;;;19.40;58.23
9277;BME280;4676;42.678;23.244;2023-05-21T12:17:29;93794.63;;;19.26;61.43
9277;BME280;4676;42.678;23.244;2023-05-21T12:19:58;93800.34;;;19.18;62.59
9277;BME280;4676;42.678;23.244;2023-05-21T12:22:26;93799.09;;;19.13;61.55
9277;BME280;4676;42.678;23.244;2023-05-21T12:24:55;93802.00;;;19.08;60.15
9277;BME280;4676;42.678;23.244;2023-05-21T12:27:25;93798.19;;;18.91;62.67
9277;BME280;4676;42.678;23.244;2023-05-21T12:29:52;93798.78;;;18.84;67.77
9277;BME280;4676;42.678;23.244;2023-05-21T12:32:20;93802.16;;;18.84;69.20
9277;BME280;4676;42.678;23.244;2023-05-21T12:34:48;93800.75;;;18.80;65.04
9277;BME280;4676;42.678;23.244;2023-05-21T12:37:17;93798.88;;;18.82;60.96
9277;BME280;4676;42.678;23.244;2023-05-21T12:39:46;93793.38;;;18.98;60.92
9277;BME280;4676;42.678;23.244;2023-05-21T12:42:15;93788.72;;;19.03;62.83
9277;BME280;4676;42.678;23.244;2023-05-21T12:44:43;93781.94;;;19.02;64.35
9277;BME280;4676;42.678;23.244;2023-05-21T12:47:10;93786.00;;;19.16;61.52
9277;BME280;4676;42.678;23.244;2023-05-21T12:49:39;93786.47;;;19.21;60.84
9277;BME280;4676;42.678;23.244;2023-05-21T12:52:10;93770.59;;;19.05;60.07
9277;BME280;4676;42.678;23.244;2023-05-21T12:54:38;93785.53;;;19.11;62.17
9277;BME280;4676;42.678;23.244;2023-05-21T12:57:06;93785.31;;;19.14;60.57
9277;BME280;4676;42.678;23.244;2023-05-21T12:59:45;93786.34;;;19.11;59.52
9277;BME280;4676;42.678;23.244;2023-05-21T13:02:17;93781.81;;;19.04;62.35
9277;BME280;4676;42.678;23.244;2023-05-21T13:04:44;93782.63;;;19.04;61.78
9277;BME280;4676;42.678;23.244;2023-05-21T13:07:12;93782.63;;;18.93;61.06
9277;BME280;4676;42.678;23.244;2023-05-21T13:09:38;93777.41;;;18.94;60.97
9277;BME280;4676;42.678;23.244;2023-05-21T13:12:05;93787.66;;;18.94;61.62
9277;BME280;4676;42.678;23.244;2023-05-21T13:14:32;93778.91;;;18.86;62.81